Time;durP1;ratioP1;P1;durP2;ratioP2;P2;SDS_P1;SDS_P2;PMS_P1;PMS_P2;Temp;Humidity;BMP_temperature;BMP_pressure;BME280_temperature;BME280_humidity;BME280_pressure;Samples;Min_cycle;Max_cycle;Signal;HPM_P1;HPM_P2
2023/08/22 00:00:32;;;;;;;9.27;6.05;;;25.40;91.80;;;;;;4949054;29;20035;-73
2023/08/22 00:02:58;;;;;;;8.75;7.15;;;25.30;92.40;;;;;;4948848;29;20027;-73
2023/08/22 00:05:24;;;;;;;9.68;6.22;;;25.30;92.50;;;;;;4948183;29;20034;-72
2023/08/22 00:07:51;;;;;;;9.48;6.85;;;25.20;92.10;;;;;;4948773;29;20067;-74
2023/08/22 00:10:17;;;;;;;12.02;8.20;;;25.10;92.50;;;;;;4948216;29;20036;-72
2023/08/22 00:12:44;;;;;;;8.70;7.03;;;25.10;92.70;;;;;;4948951;29;20035;-75
2023/08/22 00:15:10;;;;;;;12.27;7.80;;;25.00;92.60;;;;;;4948035;29;20354;-74
2023/08/22 00:17:40;;;;;;;10.55;7.35;;;25.00;92.90;;;;;;4948740;29;20046;-75
2023/08/22 00:20:09;;;;;;;10.40;6.90;;;25.00;92.70;;;;;;4948202;29;20050;-72
2023/08/22 00:22:36;;;;;;;10.65;6.90;;;25.00;93.00;;;;;;4948568;29;20046;-73
2023/08/22 00:25:02;;;;;;;9.32;7.10;;;25.00;93.00;;;;;;4948316;29;20019;-72
2023/08/22 00:27:28;;;;;;;10.18;7.13;;;24.90;93.10;;;;;;4948239;29;20115;-72
2023/08/22 00:29:57;;;;;;;9.85;7.85;;;24.90;93.00;;;;;;4948343;29;20036;-73
2023/08/22 06:03:27;;;;;;;12.40;9.13;;;24.00;99.60;;;;;;5267694;23;20100;-77
2023/08/22 06:05:53;;;;;;;15.50;10.13;;;24.10;99.30;;;;;;4966969;28;20026;-74
2023/08/22 06:08:18;;;;;;;15.13;9.95;;;24.20;99.40;;;;;;4970510;28;20059;-74
2023/08/22 06:10:44;;;;;;;15.85;9.68;;;24.30;99.20;;;;;;4967359;28;20296;-73
2023/08/22 06:13:10;;;;;;;16.00;9.80;;;24.40;99.00;;;;;;4984986;28;20049;-75
2023/08/22 06:15:38;;;;;;;12.98;9.63;;;24.40;98.60;;;;;;4983252;28;20042;-73
2023/08/22 06:18:05;;;;;;;16.35;9.75;;;24.50;98.90;;;;;;4967614;28;20042;-73
2023/08/22 06:20:30;;;;;;;16.42;10.73;;;24.60;98.40;;;;;;4967122;28;20057;-73
2023/08/22 06:22:56;;;;;;;16.80;9.52;;;24.60;98.30;;;;;;4967423;28;20034;-74
2023/08/22 06:25:22;;;;;;;13.45;9.23;;;24.70;98.10;;;;;;4984588;28;20051;-73
2023/08/22 06:27:48;;;;;;;14.45;8.98;;;24.80;97.70;;;;;;4967097;28;20081;-73
2023/08/22 06:30:14;;;;;;;19.23;10.23;;;24.90;97.50;;;;;;4967343;28;20030;-73
2023/08/22 06:32:40;;;;;;;14.27;9.73;;;24.90;97.40;;;;;;4966821;28;20336;-74
2023/08/22 06:35:07;;;;;;;13.60;9.32;;;24.90;97.30;;;;;;4967380;28;20038;-74
2023/08/22 06:37:33;;;;;;;16.38;10.13;;;24.90;97.00;;;;;;4966644;28;20034;-73
2023/08/22 06:39:58;;;;;;;14.95;8.95;;;24.90;97.00;;;;;;4964796;28;20113;-73
2023/08/22 06:42:24;;;;;;;15.48;9.60;;;25.10;97.00;;;;;;4964007;29;20059;-73
2023/08/22 06:44:51;;;;;;;12.55;9.30;;;25.20;96.80;;;;;;4963989;28;20130;-75
2023/08/22 06:47:16;;;;;;;17.38;11.32;;;25.30;96.50;;;;;;4964819;29;20035;-72
2023/08/22 06:49:42;;;;;;;14.38;9.70;;;25.40;96.50;;;;;;4964455;29;20098;-72
2023/08/22 06:52:08;;;;;;;15.85;11.98;;;25.30;96.40;;;;;;4965035;29;20027;-75
2023/08/22 06:54:33;;;;;;;17.85;13.25;;;25.50;96.40;;;;;;4964370;29;20265;-73
2023/08/22 06:56:59;;;;;;;17.38;10.73;;;25.60;96.30;;;;;;4964399;29;20098;-73
2023/08/22 06:59:25;;;;;;;14.13;9.45;;;25.70;96.00;;;;;;4980828;28;20115;-74
2023/08/22 07:01:50;;;;;;;14.05;9.18;;;25.90;95.70;;;;;;4982992;28;20232;-73
2023/08/22 07:04:16;;;;;;;13.93;9.18;;;25.90;95.40;;;;;;4983847;28;20364;-73
2023/08/22 07:06:42;;;;;;;13.98;8.18;;;26.10;95.10;;;;;;4983391;28;20061;-73
2023/08/22 07:09:08;;;;;;;9.20;7.90;;;26.20;94.60;;;;;;4983932;28;20034;-75
2023/08/22 07:11:33;;;;;;;11.68;8.32;;;26.30;94.40;;;;;;4983561;28;20034;-75
2023/08/22 07:13:59;;;;;;;12.02;7.47;;;26.30;94.10;;;;;;4984061;28;20027;-75
2023/08/22 07:16:25;;;;;;;14.75;8.90;;;26.40;93.90;;;;;;4984522;28;20026;-72
2023/08/22 07:18:50;;;;;;;13.60;8.15;;;26.50;93.80;;;;;;4983577;28;20039;-74
2023/08/22 07:21:16;;;;;;;11.82;7.95;;;26.60;93.40;;;;;;4984112;28;20352;-72
2023/08/22 07:23:42;;;;;;;11.07;7.40;;;26.70;93.60;;;;;;4983476;28;20035;-75
2023/08/22 07:26:07;;;;;;;12.93;8.00;;;26.80;93.30;;;;;;4983856;28;20034;-74
2023/08/22 07:28:33;;;;;;;9.77;7.20;;;26.80;93.10;;;;;;4982999;28;20339;-74
2023/08/22 07:31:02;;;;;;;11.35;7.53;;;26.90;93.00;;;;;;4983819;28;20031;-73
2023/08/22 07:33:28;;;;;;;9.95;7.57;;;27.00;92.90;;;;;;4983838;28;20042;-73
2023/08/22 07:35:56;;;;;;;9.98;7.57;;;27.20;92.60;;;;;;4983783;28;20027;-76
2023/08/22 07:38:22;;;;;;;9.93;7.15;;;27.30;92.70;;;;;;4983792;28;20081;-74
2023/08/22 07:40:48;;;;;;;10.43;6.60;;;27.30;92.40;;;;;;4982996;28;20035;-74
2023/08/22 07:43:13;;;;;;;11.50;7.25;;;27.40;91.90;;;;;;4983424;28;20228;-73
2023/08/22 07:45:39;;;;;;;9.70;6.85;;;27.50;91.90;;;;;;4982973;28;20062;-73
2023/08/22 07:48:05;;;;;;;11.13;6.82;;;27.50;91.50;;;;;;4983941;28;20050;-75
2023/08/22 07:50:31;;;;;;;15.02;7.47;;;27.50;91.60;;;;;;4983295;28;20343;-74
2023/08/22 07:52:57;;;;;;;8.60;6.72;;;27.60;91.30;;;;;;4986873;28;20102;-74
2023/08/22 07:55:23;;;;;;;10.68;6.70;;;27.60;91.10;;;;;;4970275;28;20366;-75
2023/08/22 07:57:50;;;;;;;10.25;6.80;;;27.70;90.80;;;;;;4986451;28;20117;-75
2023/08/22 08:00:17;;;;;;;10.68;6.63;;;27.70;90.80;;;;;;4969773;28;20035;-74
2023/08/22 08:02:45;;;;;;;9.68;6.50;;;27.80;90.90;;;;;;4986402;28;20054;-75
2023/08/22 08:05:12;;;;;;;9.52;6.28;;;28.00;90.80;;;;;;4987291;28;20098;-75
2023/08/22 08:07:41;;;;;;;8.55;5.30;;;28.10;90.40;;;;;;4986377;28;20371;-75
2023/08/22 08:10:08;;;;;;;8.73;6.43;;;28.20;90.20;;;;;;4987216;28;20043;-75
2023/08/22 08:12:33;;;;;;;9.75;5.65;;;28.30;90.00;;;;;;4986508;28;20086;-74
2023/08/22 08:14:59;;;;;;;10.00;5.28;;;28.40;89.50;;;;;;4986977;28;20035;-80
2023/08/22 08:17:25;;;;;;;10.18;5.38;;;28.50;89.00;;;;;;4987004;28;20034;-73
2023/08/22 08:19:51;;;;;;;8.68;5.85;;;28.50;88.40;;;;;;4986248;28;20317;-74
2023/08/22 08:22:17;;;;;;;10.20;5.40;;;28.30;88.00;;;;;;4986764;28;20220;-75
2023/08/22 08:24:43;;;;;;;7.13;4.88;;;28.40;88.30;;;;;;4986099;28;20039;-76
2023/08/22 08:27:09;;;;;;;5.95;4.22;;;28.50;88.40;;;;;;4986805;28;20092;-73
2023/08/22 08:29:34;;;;;;;8.02;4.97;;;28.70;87.30;;;;;;4986082;28;20324;-73
2023/08/22 08:32:00;;;;;;;8.55;5.22;;;28.80;86.70;;;;;;4986797;28;20329;-74
2023/08/22 08:34:26;;;;;;;9.60;5.28;;;28.80;87.40;;;;;;4986741;28;20041;-75
2023/08/22 08:36:52;;;;;;;9.82;4.78;;;28.90;87.00;;;;;;4986157;28;20041;-75
2023/08/22 08:39:18;;;;;;;8.00;5.45;;;29.00;87.20;;;;;;4986537;28;20038;-75
2023/08/22 08:41:59;;;;;;;8.63;5.25;;;29.00;86.60;;;;;;4985935;28;20113;-76
2023/08/22 08:44:26;;;;;;;9.00;4.93;;;29.00;86.10;;;;;;4986583;28;20094;-75
2023/08/22 08:46:54;;;;;;;9.98;4.90;;;29.00;85.50;;;;;;4969226;28;20047;-74
2023/08/22 08:49:20;;;;;;;8.98;4.80;;;29.20;85.00;;;;;;4986203;28;20193;-73
2023/08/22 08:51:47;;;;;;;9.25;5.20;;;29.30;85.40;;;;;;4985652;28;20038;-75
2023/08/22 08:54:24;;;;;;;7.30;4.60;;;29.30;84.80;;;;;;4986280;28;20365;-76
2023/08/22 08:56:51;;;;;;;5.78;4.88;;;29.40;84.90;;;;;;4985676;28;20035;-74
2023/08/22 08:59:17;;;;;;;8.07;4.60;;;29.50;83.60;;;;;;4985860;28;20042;-77
2023/08/22 09:01:45;;;;;;;8.10;4.10;;;29.50;83.00;;;;;;4985649;28;20041;-76
2023/08/22 09:04:10;;;;;;;6.07;4.00;;;29.60;83.00;;;;;;4985748;28;20066;-74
2023/08/22 09:06:38;;;;;;;8.00;4.07;;;29.60;83.50;;;;;;4985643;28;20039;-75
2023/08/22 09:09:08;;;;;;;6.10;4.03;;;29.60;81.90;;;;;;4986121;28;20034;-74
2023/08/22 09:11:50;;;;;;;8.32;4.30;;;29.60;82.90;;;;;;4986057;28;20066;-74
2023/08/22 09:14:20;;;;;;;7.15;3.78;;;29.70;82.60;;;;;;4986095;28;20047;-75
2023/08/22 09:16:46;;;;;;;10.68;4.25;;;29.80;82.60;;;;;;4985373;28;20316;-75
2023/08/22 09:19:12;;;;;;;7.53;4.03;;;29.90;81.60;;;;;;4985918;28;20042;-75
2023/08/22 09:21:37;;;;;;;6.07;3.55;;;30.00;81.70;;;;;;4985625;28;20033;-76
2023/08/22 09:24:08;;;;;;;7.60;4.13;;;30.10;81.30;;;;;;4985863;28;20042;-76
2023/08/22 09:26:35;;;;;;;7.72;3.88;;;30.10;80.80;;;;;;4985739;28;20039;-75
2023/08/22 09:29:07;;;;;;;9.35;4.03;;;30.20;81.50;;;;;;4985543;28;20329;-76
2023/08/22 09:31:36;;;;;;;7.57;4.25;;;30.40;80.70;;;;;;4985315;28;20034;-74
2023/08/22 09:34:09;;;;;;;5.97;3.53;;;30.50;80.60;;;;;;4985359;28;20038;-74
2023/08/22 09:36:44;;;;;;;8.85;3.85;;;30.50;79.20;;;;;;4985210;28;20043;-75
2023/08/22 09:39:19;;;;;;;8.70;4.43;;;30.50;80.10;;;;;;4985734;28;20046;-76
2023/08/22 09:41:45;;;;;;;7.45;3.60;;;30.60;79.70;;;;;;4985246;28;20034;-76
2023/08/22 09:44:11;;;;;;;6.40;4.13;;;30.80;79.30;;;;;;4985508;28;20027;-77
2023/08/22 09:46:40;;;;;;;4.53;3.50;;;30.80;78.20;;;;;;4984765;28;20097;-76
2023/08/22 09:49:11;;;;;;;8.05;3.90;;;30.80;78.30;;;;;;4985094;28;20107;-74
2023/08/22 09:51:39;;;;;;;5.47;3.55;;;30.60;78.80;;;;;;4985409;28;20030;-76
2023/08/22 09:54:06;;;;;;;5.05;3.53;;;30.60;78.70;;;;;;4985507;28;20041;-74
2023/08/22 09:56:32;;;;;;;6.53;3.70;;;30.70;78.90;;;;;;4985491;28;20042;-73
2023/08/22 09:59:01;;;;;;;5.60;3.30;;;30.80;79.10;;;;;;4984374;28;20045;-74
2023/08/22 10:01:29;;;;;;;4.82;3.55;;;30.90;78.60;;;;;;4984742;28;20045;-73
2023/08/22 10:03:56;;;;;;;7.13;3.78;;;31.10;79.30;;;;;;4984750;28;20305;-73
2023/08/22 10:06:39;;;;;;;6.28;3.88;;;31.10;77.50;;;;;;4985230;28;20054;-73
2023/08/22 10:09:10;;;;;;;6.18;3.42;;;31.10;77.30;;;;;;4985201;28;20038;-73
2023/08/22 10:11:45;;;;;;;5.97;3.55;;;31.30;77.60;;;;;;4984934;28;20037;-72
2023/08/22 10:14:56;;;;;;;6.15;3.42;;;31.40;77.80;;;;;;4983730;28;20039;-72
2023/08/22 10:17:26;;;;;;;8.23;3.78;;;31.50;76.90;;;;;;4953310;28;20054;-71
2023/08/22 10:19:52;;;;;;;7.53;3.42;;;31.50;76.30;;;;;;4984395;28;20058;-72
2023/08/22 10:22:17;;;;;;;6.40;3.65;;;31.60;76.60;;;;;;4984473;28;20038;-73
2023/08/22 10:24:47;;;;;;;4.82;2.90;;;31.80;76.40;;;;;;4982919;28;20045;-73
2023/08/22 10:27:15;;;;;;;6.70;3.40;;;32.00;76.20;;;;;;4984098;28;20034;-73
2023/08/22 10:30:12;;;;;;;9.90;3.72;;;32.10;75.40;;;;;;4983998;28;20209;-73
2023/08/22 10:32:39;;;;;;;5.63;2.95;;;32.10;75.00;;;;;;4984506;28;20041;-72
2023/08/22 10:35:13;;;;;;;5.78;3.30;;;32.20;74.80;;;;;;4983717;28;20098;-73
2023/08/22 10:37:52;;;;;;;4.22;3.35;;;32.10;74.10;;;;;;4984113;28;20030;-74
2023/08/22 10:40:25;;;;;;;6.10;3.38;;;32.20;74.40;;;;;;4984348;28;20038;-74
2023/08/22 10:43:03;;;;;;;4.40;2.83;;;32.30;74.10;;;;;;4984124;28;20034;-74
2023/08/22 10:45:40;;;;;;;4.43;2.90;;;32.40;74.00;;;;;;4964912;29;20082;-72
2023/08/22 10:48:11;;;;;;;5.93;3.10;;;32.50;73.30;;;;;;4964993;29;20332;-73
2023/08/22 10:50:41;;;;;;;4.75;3.13;;;32.70;73.50;;;;;;4964761;29;20431;-74
2023/08/22 10:53:21;;;;;;;5.20;2.97;;;33.00;71.50;;;;;;4978369;28;20065;-74
2023/08/22 10:55:49;;;;;;;6.60;3.40;;;33.10;69.70;;;;;;4983810;28;20041;-73
2023/08/22 10:58:57;;;;;;;5.07;3.17;;;33.00;70.20;;;;;;4983490;28;20047;-74
2023/08/22 11:01:23;;;;;;;4.90;3.20;;;33.00;70.30;;;;;;4947399;28;20058;-73
2023/08/22 11:03:51;;;;;;;4.22;2.67;;;33.10;70.90;;;;;;4983838;28;20080;-74
2023/08/22 11:06:18;;;;;;;4.68;2.88;;;33.30;69.70;;;;;;4984236;28;20038;-74
2023/08/22 11:08:45;;;;;;;5.68;2.88;;;33.50;69.60;;;;;;4983665;28;20076;-73
2023/08/22 11:11:15;;;;;;;3.92;2.78;;;33.90;69.30;;;;;;4984289;28;20216;-74
2023/08/22 11:13:42;;;;;;;5.40;2.60;;;34.10;67.30;;;;;;4967121;28;20317;-73
2023/08/22 11:16:11;;;;;;;4.47;2.58;;;34.10;67.20;;;;;;4984095;28;20048;-74
2023/08/22 11:18:39;;;;;;;6.82;2.70;;;34.00;67.20;;;;;;4983765;28;20240;-73
2023/08/22 11:21:05;;;;;;;5.28;2.83;;;33.90;67.90;;;;;;4983590;28;20134;-74
2023/08/22 11:23:32;;;;;;;5.43;2.55;;;33.80;67.80;;;;;;4984061;28;20043;-75
2023/08/22 11:26:00;;;;;;;5.30;2.75;;;34.30;67.90;;;;;;4983576;28;20277;-74
2023/08/22 11:28:30;;;;;;;5.93;2.58;;;34.90;65.30;;;;;;4988026;28;20034;-75
2023/08/22 11:30:56;;;;;;;4.18;2.15;;;35.60;64.30;;;;;;4987628;28;20035;-73
2023/08/22 11:33:23;;;;;;;4.93;2.50;;;36.30;62.00;;;;;;4970579;28;20023;-74
2023/08/22 11:35:49;;;;;;;6.90;2.93;;;36.40;61.80;;;;;;4987435;28;20305;-75
2023/08/22 11:38:15;;;;;;;5.70;2.70;;;36.10;62.00;;;;;;4987825;28;20039;-73
2023/08/22 11:40:42;;;;;;;4.18;2.45;;;36.10;62.30;;;;;;4987952;28;20134;-76
2023/08/22 11:43:09;;;;;;;5.85;2.40;;;36.40;62.00;;;;;;4987217;28;20034;-73
2023/08/22 11:45:46;;;;;;;4.65;2.75;;;36.20;61.60;;;;;;4987473;28;20034;-74
2023/08/22 11:48:16;;;;;;;8.02;2.30;;;36.00;62.40;;;;;;4987557;28;20264;-72
2023/08/22 11:50:43;;;;;;;3.13;2.38;;;37.20;61.00;;;;;;4987648;28;20090;-73
2023/08/22 11:53:13;;;;;;;4.13;1.90;;;38.50;59.70;;;;;;4985644;28;20208;-74
2023/08/22 11:55:41;;;;;;;4.28;2.17;;;39.80;58.40;;;;;;4987531;28;20050;-76
2023/08/22 11:58:15;;;;;;;4.88;2.30;;;40.70;55.40;;;;;;4986545;28;20247;-74
2023/08/22 12:00:41;;;;;;;5.70;2.20;;;40.80;54.90;;;;;;4987247;28;20054;-73
2023/08/22 12:03:09;;;;;;;5.05;2.67;;;40.90;54.70;;;;;;4986643;28;20113;-72
2023/08/22 12:05:36;;;;;;;3.80;2.03;;;40.50;55.00;;;;;;4987613;28;20086;-73
2023/08/22 12:08:11;;;;;;;5.18;2.35;;;40.50;55.20;;;;;;4969782;28;20038;-74
2023/08/22 12:10:45;;;;;;;3.97;2.28;;;40.20;55.60;;;;;;4981318;28;20667;-73
2023/08/22 12:13:14;;;;;;;6.15;2.38;;;41.50;54.10;;;;;;4986933;28;20034;-75
2023/08/22 12:15:40;;;;;;;4.07;2.50;;;42.50;53.30;;;;;;4987141;28;20065;-74
2023/08/22 12:18:07;;;;;;;6.10;2.28;;;41.60;53.60;;;;;;4986727;28;20170;-73
2023/08/22 12:20:34;;;;;;;4.43;2.00;;;40.60;53.90;;;;;;4986708;28;20049;-72
2023/08/22 12:23:03;;;;;;;3.30;1.77;;;41.50;54.40;;;;;;4986201;28;20193;-72
2023/08/22 12:25:29;;;;;;;3.75;1.90;;;43.40;52.20;;;;;;4987043;28;20027;-73
2023/08/22 12:27:55;;;;;;;4.47;1.88;;;43.20;51.80;;;;;;4986672;28;20046;-73
2023/08/22 12:30:20;;;;;;;4.70;2.00;;;43.30;51.40;;;;;;4986972;28;20058;-73
2023/08/22 12:32:46;;;;;;;5.15;2.00;;;42.80;51.70;;;;;;4986970;28;20070;-74
2023/08/22 12:35:12;;;;;;;3.60;2.50;;;41.50;52.60;;;;;;4986932;28;20041;-74
2023/08/22 12:37:39;;;;;;;5.93;2.25;;;42.60;52.60;;;;;;4985649;28;20088;-74
2023/08/22 12:40:11;;;;;;;5.97;2.33;;;43.70;51.40;;;;;;4985999;28;20105;-73
2023/08/22 12:42:41;;;;;;;2.60;1.80;;;43.20;51.70;;;;;;4953390;28;20197;-73
2023/08/22 12:45:08;;;;;;;4.50;2.03;;;42.30;52.20;;;;;;4986186;28;20038;-73
2023/08/22 12:47:36;;;;;;;4.78;1.85;;;41.80;52.90;;;;;;4986318;28;20036;-74
2023/08/22 12:50:01;;;;;;;3.05;2.17;;;41.60;53.40;;;;;;4985699;28;20041;-73
2023/08/22 12:52:27;;;;;;;5.95;3.97;;;42.10;52.90;;;;;;4986299;28;20035;-74
2023/08/22 12:54:53;;;;;;;6.13;1.98;;;42.70;52.20;;;;;;4985928;28;20026;-73
2023/08/22 12:57:19;;;;;;;4.80;2.53;;;43.50;51.40;;;;;;4986153;28;20035;-74
2023/08/22 12:59:44;;;;;;;5.00;1.98;;;44.50;50.80;;;;;;4985919;28;20034;-73
2023/08/22 13:02:10;;;;;;;4.63;2.08;;;45.00;49.60;;;;;;4985493;28;20062;-74
2023/08/22 13:04:36;;;;;;;3.25;1.70;;;45.20;49.20;;;;;;4986304;28;20098;-75
2023/08/22 13:07:01;;;;;;;6.57;2.03;;;45.80;49.50;;;;;;4985962;28;20035;-74
2023/08/22 13:09:27;;;;;;;3.05;1.90;;;46.30;48.60;;;;;;4985995;28;20093;-76
2023/08/22 13:11:53;;;;;;;3.33;1.90;;;45.70;49.20;;;;;;4985769;28;20038;-76
2023/08/22 13:14:19;;;;;;;4.78;2.08;;;45.50;49.40;;;;;;4986406;28;20031;-77
2023/08/22 13:16:44;;;;;;;3.30;1.90;;;45.00;49.20;;;;;;4986340;28;20208;-73
2023/08/22 13:19:10;;;;;;;4.15;2.17;;;44.20;49.60;;;;;;4985388;28;20054;-76
2023/08/22 13:21:36;;;;;;;4.95;2.22;;;43.50;50.40;;;;;;4985813;28;20031;-78
2023/08/22 13:24:02;;;;;;;5.68;2.20;;;42.00;52.40;;;;;;4985776;28;20054;-77
2023/08/22 13:26:29;;;;;;;4.85;2.25;;;41.10;53.20;;;;;;4982981;28;20055;-74
2023/08/22 13:28:55;;;;;;;;;;;41.40;52.90;;;;;;4985736;28;20035;-76
2023/08/22 13:31:21;;;;;;;4.03;2.33;;;40.60;53.70;;;;;;4968576;28;19906;-74
2023/08/22 13:33:46;;;;;;;4.80;2.33;;;40.70;53.90;;;;;;4985820;28;20147;-75
2023/08/22 13:36:12;;;;;;;3.72;2.15;;;41.80;53.10;;;;;;4985074;28;20031;-78
2023/08/22 13:38:39;;;;;;;3.60;2.25;;;42.70;52.20;;;;;;4985380;28;20081;-77
2023/08/22 13:41:05;;;;;;;6.10;2.33;;;43.30;52.00;;;;;;4985370;28;20042;-76
2023/08/22 13:43:30;;;;;;;5.57;2.40;;;44.50;50.90;;;;;;4968499;28;20054;-75
2023/08/22 13:45:56;;;;;;;6.15;2.13;;;45.10;50.30;;;;;;4985023;28;20030;-77
2023/08/22 13:48:22;;;;;;;4.03;1.85;;;46.00;49.30;;;;;;4985191;28;20081;-76
2023/08/22 13:50:49;;;;;;;4.60;1.98;;;46.60;48.40;;;;;;4985468;28;20050;-74
2023/08/22 13:53:15;;;;;;;;;;;46.90;48.50;;;;;;4985317;28;20034;-76
2023/08/22 13:55:41;;;;;;;4.40;2.00;;;47.00;48.00;;;;;;4985486;28;19985;-76
2023/08/22 13:58:07;;;;;;;4.60;2.17;;;46.90;48.30;;;;;;4984317;28;20282;-78
2023/08/22 14:00:32;;;;;;;5.30;2.20;;;46.90;47.80;;;;;;4984984;28;20030;-76
2023/08/22 14:02:59;;;;;;;6.50;1.80;;;47.10;48.10;;;;;;4963949;29;20051;-77
2023/08/22 14:05:24;;;;;;;3.50;1.90;;;47.30;47.70;;;;;;4966281;29;20050;-76
2023/08/22 14:07:50;;;;;;;3.53;2.00;;;47.80;47.10;;;;;;4966096;29;20035;-77
2023/08/22 14:10:16;;;;;;;7.27;2.53;;;48.00;46.90;;;;;;4965775;29;20035;-76
2023/08/22 14:12:42;;;;;;;6.40;2.23;;;48.00;46.80;;;;;;4965591;29;20043;-76
2023/08/22 14:15:08;;;;;;;2.90;1.90;;;48.60;46.80;;;;;;4964169;29;20034;-77
2023/08/22 14:17:34;;;;;;;6.60;2.20;;;49.60;46.10;;;;;;4965151;29;20351;-77
2023/08/22 14:20:00;;;;;;;4.67;1.70;;;49.90;45.60;;;;;;4965335;28;20039;-78
2023/08/22 14:22:26;;;;;;;3.83;1.90;;;49.80;45.40;;;;;;4965644;28;20023;-76
2023/08/22 14:24:51;;;;;;;3.60;1.70;;;50.20;45.00;;;;;;4965874;28;20042;-77
2023/08/22 14:27:17;;;;;;;5.60;1.93;;;49.80;45.10;;;;;;4965142;28;20039;-75
2023/08/22 14:29:45;;;;;;;6.40;1.88;;;49.80;44.90;;;;;;4965444;28;20111;-76
2023/08/22 14:32:11;;;;;;;3.67;2.00;;;48.20;45.50;;;;;;4965126;28;20115;-74
2023/08/22 14:34:37;;;;;;;5.88;2.50;;;46.70;47.30;;;;;;4960921;29;20028;-76
2023/08/22 14:37:02;;;;;;;5.85;2.40;;;46.70;47.70;;;;;;4957862;29;20035;-74
2023/08/22 14:39:28;;;;;;;4.85;2.13;;;46.90;47.40;;;;;;4965208;28;20062;-77
2023/08/22 14:41:54;;;;;;;3.73;1.93;;;47.80;47.10;;;;;;4965239;28;20095;-78
2023/08/22 14:44:20;;;;;;;4.22;2.20;;;48.20;46.40;;;;;;4965196;29;20053;-77
2023/08/22 14:46:45;;;;;;;5.73;1.90;;;48.10;46.20;;;;;;4965209;28;20035;-76
2023/08/22 14:49:11;;;;;;;6.37;2.00;;;48.10;46.10;;;;;;4964583;28;20059;-74
2023/08/22 14:51:37;;;;;;;3.83;1.77;;;48.20;46.50;;;;;;4964910;29;20027;-76
2023/08/22 14:54:04;;;;;;;3.67;1.80;;;48.50;46.10;;;;;;4964233;28;20039;-76
2023/08/22 14:56:30;;;;;;;4.63;2.10;;;48.00;46.30;;;;;;4965036;28;20206;-77
2023/08/22 14:58:56;;;;;;;3.90;1.77;;;48.10;46.30;;;;;;4963789;28;20043;-77
2023/08/22 15:01:22;;;;;;;4.03;1.97;;;48.70;46.00;;;;;;4963004;28;20102;-75
2023/08/22 15:03:48;;;;;;;4.20;1.90;;;48.70;45.90;;;;;;4963273;28;20058;-75
2023/08/22 15:06:14;;;;;;;3.83;1.77;;;49.20;45.80;;;;;;4964075;28;20194;-76
2023/08/22 15:08:40;;;;;;;4.33;2.10;;;49.10;45.80;;;;;;4963688;29;20038;-76
2023/08/22 15:11:08;;;;;;;3.05;1.80;;;48.80;45.60;;;;;;4964272;28;20035;-75
2023/08/22 15:13:33;;;;;;;3.90;1.90;;;48.60;46.70;;;;;;4964589;28;20253;-77
2023/08/22 15:15:59;;;;;;;4.77;2.20;;;48.50;45.90;;;;;;4963510;29;20070;-75
2023/08/22 15:18:25;;;;;;;3.37;1.83;;;48.10;46.30;;;;;;4964898;28;20058;-75
2023/08/22 15:20:52;;;;;;;5.13;2.00;;;47.90;46.40;;;;;;4963353;29;20090;-74
2023/08/22 15:23:20;;;;;;;4.18;2.25;;;47.70;46.70;;;;;;4964049;28;20078;-77
2023/08/22 15:25:48;;;;;;;5.25;1.80;;;47.10;46.80;;;;;;4964276;29;20228;-76
2023/08/22 15:28:14;;;;;;;5.30;1.92;;;47.40;46.90;;;;;;4964026;28;20035;-75
2023/08/22 15:30:39;;;;;;;5.75;2.20;;;47.50;47.00;;;;;;4963370;29;20194;-76
2023/08/22 15:33:05;;;;;;;2.92;1.95;;;47.40;46.70;;;;;;4963970;28;20042;-77
2023/08/22 15:35:31;;;;;;;4.07;2.05;;;47.40;46.70;;;;;;4963371;29;20042;-76
2023/08/22 15:37:57;;;;;;;3.35;1.83;;;47.80;46.60;;;;;;4964867;29;20216;-78
2023/08/22 15:40:23;;;;;;;2.88;1.83;;;47.60;46.30;;;;;;4964127;29;20035;-76
2023/08/22 15:42:49;;;;;;;3.33;2.00;;;47.90;46.10;;;;;;4966869;28;20043;-76
2023/08/22 15:45:14;;;;;;;4.95;2.03;;;48.10;46.00;;;;;;4965006;28;20036;-77
2023/08/22 15:47:40;;;;;;;3.75;1.60;;;48.10;45.80;;;;;;4965231;29;20039;-77
2023/08/22 15:50:07;;;;;;;3.05;1.70;;;47.60;46.10;;;;;;4963956;29;20309;-76
2023/08/22 15:52:32;;;;;;;4.60;1.87;;;47.60;46.40;;;;;;4964263;28;20035;-75
2023/08/22 15:54:59;;;;;;;3.47;1.80;;;47.60;46.10;;;;;;4963491;29;20108;-76
2023/08/22 15:57:25;;;;;;;3.20;1.73;;;47.50;46.00;;;;;;4963066;29;20031;-77
2023/08/22 15:59:50;;;;;;;4.25;2.33;;;46.60;46.70;;;;;;4963260;29;20024;-78
2023/08/22 16:02:16;;;;;;;3.83;2.22;;;46.50;47.10;;;;;;4966766;28;20039;-76
2023/08/22 16:04:42;;;;;;;3.50;1.85;;;46.60;46.80;;;;;;4983534;28;20029;-75
2023/08/22 16:07:07;;;;;;;3.13;2.17;;;46.60;46.90;;;;;;4983384;28;20337;-75
2023/08/22 16:09:33;;;;;;;5.22;1.85;;;46.80;46.90;;;;;;4983575;28;20043;-79
2023/08/22 16:11:59;;;;;;;3.03;2.00;;;46.20;47.20;;;;;;4983791;28;20080;-75
2023/08/22 16:14:25;;;;;;;4.78;1.60;;;46.30;47.20;;;;;;4986768;28;20022;-78
2023/08/22 16:16:50;;;;;;;3.92;2.00;;;46.40;47.30;;;;;;4987142;28;20122;-77
2023/08/22 16:19:16;;;;;;;3.38;2.10;;;46.30;47.10;;;;;;4969388;28;20094;-78
2023/08/22 16:21:42;;;;;;;5.47;1.98;;;45.80;47.20;;;;;;4987014;28;20293;-77
2023/08/22 16:24:08;;;;;;;3.65;1.80;;;44.80;47.70;;;;;;4969582;28;20093;-77
2023/08/22 16:26:34;;;;;;;3.05;1.90;;;44.80;48.20;;;;;;4987043;28;20090;-77
2023/08/22 16:29:00;;;;;;;5.38;2.17;;;44.80;48.20;;;;;;4953772;28;20250;-76
2023/08/22 16:31:27;;;;;;;3.65;1.52;;;44.40;48.70;;;;;;4986627;28;20045;-75
2023/08/22 16:33:53;;;;;;;3.65;1.85;;;44.60;48.40;;;;;;4969440;28;20045;-77
2023/08/22 16:36:20;;;;;;;4.20;1.95;;;44.60;48.60;;;;;;4973768;28;20034;-75
2023/08/22 16:38:46;;;;;;;2.30;1.60;;;44.40;48.10;;;;;;4953704;28;20194;-76
2023/08/22 16:41:12;;;;;;;2.60;1.70;;;44.40;48.60;;;;;;4986476;28;20111;-75
2023/08/22 16:43:37;;;;;;;5.70;2.00;;;44.70;48.30;;;;;;4986614;28;20325;-76
2023/08/22 16:46:04;;;;;;;6.55;2.13;;;44.60;47.90;;;;;;4985844;28;20261;-76
2023/08/22 16:48:30;;;;;;;3.58;2.20;;;43.60;48.90;;;;;;4986884;28;20034;-78
2023/08/22 16:50:56;;;;;;;4.43;1.80;;;43.20;49.30;;;;;;4986231;28;20249;-75
2023/08/22 16:53:22;;;;;;;3.63;1.92;;;43.10;49.60;;;;;;4986241;28;20042;-75
2023/08/22 16:55:47;;;;;;;6.03;2.15;;;42.80;49.80;;;;;;4986501;28;20027;-75
2023/08/22 16:58:14;;;;;;;3.15;2.00;;;42.80;49.70;;;;;;4979067;28;20098;-76
2023/08/22 17:00:39;;;;;;;3.70;1.92;;;42.40;50.30;;;;;;4967303;29;20059;-75
2023/08/22 17:03:05;;;;;;;5.05;2.28;;;41.60;50.90;;;;;;4966317;29;20047;-75
2023/08/22 17:05:31;;;;;;;4.32;2.15;;;40.40;52.30;;;;;;4966557;29;20036;-74
2023/08/22 17:07:57;;;;;;;5.30;1.90;;;39.60;53.30;;;;;;4966853;29;20043;-74
2023/08/22 17:10:23;;;;;;;5.38;2.10;;;38.60;54.50;;;;;;4984515;28;20379;-74
2023/08/22 17:12:52;;;;;;;4.40;2.20;;;37.80;55.40;;;;;;4986142;28;20252;-73
2023/08/22 17:15:21;;;;;;;4.18;2.80;;;37.10;56.30;;;;;;4985704;28;20042;-74
2023/08/22 17:17:47;;;;;;;5.85;2.30;;;36.50;57.40;;;;;;4968880;28;20043;-73
2023/08/22 17:20:13;;;;;;;5.80;2.53;;;36.10;58.00;;;;;;4985429;28;20313;-76
2023/08/22 17:22:39;;;;;;;5.63;2.50;;;35.60;59.00;;;;;;4969158;28;20031;-76
2023/08/22 17:25:08;;;;;;;4.20;2.28;;;35.10;59.60;;;;;;4952213;28;20023;-79
2023/08/22 17:27:34;;;;;;;4.95;2.55;;;34.80;60.40;;;;;;4969967;28;20039;-75
2023/08/22 17:30:00;;;;;;;4.85;2.33;;;34.50;60.80;;;;;;4986581;28;20038;-77
2023/08/22 17:32:29;;;;;;;3.97;2.05;;;34.20;61.80;;;;;;4952236;28;20323;-75
2023/08/22 17:34:59;;;;;;;3.78;2.05;;;34.00;61.90;;;;;;4985450;28;20097;-75
2023/08/22 17:37:25;;;;;;;4.22;2.45;;;33.80;62.50;;;;;;4985536;28;20252;-77
2023/08/22 17:39:52;;;;;;;6.90;2.20;;;33.70;62.80;;;;;;4984553;28;20097;-76
2023/08/22 17:42:18;;;;;;;4.30;2.25;;;33.50;63.10;;;;;;4966370;28;20042;-75
2023/08/22 17:44:50;;;;;;;3.88;2.40;;;33.30;63.40;;;;;;4968008;28;20194;-78
2023/08/22 17:47:16;;;;;;;4.88;2.58;;;33.20;64.00;;;;;;4984905;28;20320;-74
2023/08/22 17:49:42;;;;;;;3.92;2.22;;;33.10;64.40;;;;;;4985396;28;20065;-76
2023/08/22 17:52:08;;;;;;;4.93;2.55;;;32.90;64.50;;;;;;4985163;28;20027;-76
2023/08/22 17:54:34;;;;;;;6.38;2.63;;;32.60;65.10;;;;;;4985383;28;20049;-75
2023/08/22 17:57:00;;;;;;;6.10;2.53;;;32.30;65.80;;;;;;4985700;28;20034;-75
2023/08/22 17:59:25;;;;;;;5.10;2.70;;;32.20;66.00;;;;;;4984347;28;20069;-76
2023/08/22 18:01:52;;;;;;;4.20;2.30;;;32.10;66.40;;;;;;4985323;28;20034;-76
2023/08/22 18:04:18;;;;;;;5.68;2.20;;;32.00;66.60;;;;;;4967510;28;20031;-77
2023/08/22 18:06:44;;;;;;;4.90;2.38;;;32.00;66.80;;;;;;4985374;28;20061;-76
2023/08/22 18:09:09;;;;;;;3.80;2.40;;;32.10;67.00;;;;;;4985027;28;20054;-76
2023/08/22 18:11:35;;;;;;;4.53;2.55;;;32.10;67.20;;;;;;4984993;28;20031;-75
2023/08/22 18:14:03;;;;;;;4.22;2.35;;;32.00;67.20;;;;;;4984788;28;20058;-76
2023/08/22 18:16:30;;;;;;;;;;;32.00;67.40;;;;;;4951904;28;20043;-78